Time;durP1;ratioP1;P1;durP2;ratioP2;P2;SDS_P1;SDS_P2;PMS_P1;PMS_P2;Temp;Humidity;BMP_temperature;BMP_pressure;BME280_temperature;BME280_humidity;BME280_pressure;Samples;Min_cycle;Max_cycle;Signal;HPM_P1;HPM_P2
2022/03/03 00:01:24;;;;;;;32.08;25.08;;;;;;;;;;4933684;29;20476;-79
2022/03/03 00:03:50;;;;;;;32.35;25.75;;;;;;;;;;4930323;29;20059;-79
2022/03/03 00:06:16;;;;;;;31.33;26.00;;;;;;;;;;4932458;29;20050;-79
2022/03/03 00:08:54;;;;;;;29.80;22.52;;;;;;;;;;4929180;29;20476;-80
2022/03/03 00:11:20;;;;;;;33.88;26.42;;;;;;;;;;4932681;29;20047;-79
2022/03/03 00:13:46;;;;;;;34.55;24.80;;;;;;;;;;4934644;29;20491;-79
2022/03/03 00:16:14;;;;;;;32.30;25.25;;;;;;;;;;4935486;29;20040;-79
2022/03/03 00:18:40;;;;;;;31.25;25.35;;;;;;;;;;4934354;29;20230;-79
2022/03/03 00:21:06;;;;;;;33.15;25.92;;;;;;;;;;4934569;29;20078;-79
2022/03/03 00:23:32;;;;;;;32.78;26.55;;;;;;;;;;4932858;29;20044;-79
2022/03/03 00:26:02;;;;;;;33.25;27.00;;;;;;;;;;4932960;29;20797;-79
2022/03/03 00:28:31;;;;;;;31.77;27.10;;;;;;;;;;4933772;29;20039;-80
2022/03/03 00:30:57;;;;;;;33.17;26.35;;;;;;;;;;4935063;29;20500;-80
2022/03/03 00:33:23;;;;;;;35.17;27.05;;;;;;;;;;4932931;29;20464;-80
2022/03/03 00:35:49;;;;;;;33.75;26.05;;;;;;;;;;4935035;29;20105;-79
2022/03/03 00:38:15;;;;;;;32.30;26.05;;;;;;;;;;4933476;29;20043;-79
2022/03/03 00:40:44;;;;;;;36.13;25.33;;;;;;;;;;4924091;29;20493;-79
2022/03/03 00:43:10;;;;;;;34.25;26.98;;;;;;;;;;4931115;29;20058;-78
2022/03/03 00:45:36;;;;;;;33.67;26.27;;;;;;;;;;4931736;29;20055;-79
2022/03/03 00:48:03;;;;;;;34.95;28.20;;;;;;;;;;4932217;29;20103;-80
2022/03/03 00:50:30;;;;;;;33.95;27.65;;;;;;;;;;4932367;29;20495;-79
2022/03/03 00:52:56;;;;;;;35.83;27.60;;;;;;;;;;4934400;29;20036;-80
2022/03/03 00:55:25;;;;;;;34.42;26.38;;;;;;;;;;4933492;29;20051;-80
2022/03/03 00:57:51;;;;;;;38.70;27.13;;;;;;;;;;4933799;29;20066;-79
2022/03/03 01:00:18;;;;;;;34.15;25.27;;;;;;;;;;4932926;29;20488;-79
2022/03/03 01:02:45;;;;;;;34.78;26.45;;;;;;;;;;4931722;29;20453;-80
2022/03/03 01:05:11;;;;;;;34.47;26.45;;;;;;;;;;4929924;29;20047;-79
2022/03/03 01:07:38;;;;;;;34.92;25.75;;;;;;;;;;4934490;29;20103;-80
2022/03/03 01:10:05;;;;;;;32.28;27.05;;;;;;;;;;4934871;29;20099;-80
2022/03/03 01:12:31;;;;;;;34.60;26.83;;;;;;;;;;4931730;29;20048;-80
2022/03/03 01:14:57;;;;;;;36.88;28.58;;;;;;;;;;4932258;29;20471;-80
2022/03/03 01:17:23;;;;;;;35.58;26.40;;;;;;;;;;4930469;29;20126;-80
2022/03/03 01:19:54;;;;;;;32.78;24.85;;;;;;;;;;4932400;29;20071;-80
2022/03/03 01:22:20;;;;;;;36.55;28.00;;;;;;;;;;4932700;29;20094;-80
2022/03/03 01:24:46;;;;;;;38.53;27.52;;;;;;;;;;4931253;29;20488;-79
2022/03/03 01:27:13;;;;;;;34.20;26.33;;;;;;;;;;4930190;29;20057;-79
2022/03/03 01:29:39;;;;;;;33.25;25.10;;;;;;;;;;4929269;29;20075;-79
2022/03/03 01:32:06;;;;;;;38.80;28.58;;;;;;;;;;4931811;29;20047;-80
2022/03/03 01:34:32;;;;;;;34.13;27.08;;;;;;;;;;4927177;29;20043;-80
2022/03/03 01:36:58;;;;;;;35.95;27.40;;;;;;;;;;4928800;29;20054;-80
2022/03/03 01:39:26;;;;;;;35.72;26.40;;;;;;;;;;4929257;29;20059;-80
2022/03/03 01:41:52;;;;;;;33.78;26.25;;;;;;;;;;4926542;29;20170;-80
2022/03/03 01:44:18;;;;;;;35.63;27.10;;;;;;;;;;4929332;29;20047;-80
2022/03/03 01:46:48;;;;;;;35.13;27.60;;;;;;;;;;4933332;29;20488;-80
2022/03/03 01:49:14;;;;;;;35.30;27.58;;;;;;;;;;4932253;29;20044;-79
2022/03/03 01:51:40;;;;;;;35.58;27.42;;;;;;;;;;4929963;29;20447;-80
2022/03/03 01:54:06;;;;;;;35.30;28.65;;;;;;;;;;4932737;29;20047;-79
2022/03/03 01:56:32;;;;;;;35.45;28.98;;;;;;;;;;4932804;29;20419;-80
2022/03/03 01:58:59;;;;;;;37.88;29.38;;;;;;;;;;4934657;29;20038;-80
2022/03/03 02:01:25;;;;;;;33.80;27.23;;;;;;;;;;4929778;29;20059;-80
2022/03/03 02:03:51;;;;;;;36.83;28.55;;;;;;;;;;4933819;29;20511;-80
2022/03/03 02:06:18;;;;;;;35.78;28.15;;;;;;;;;;4932755;29;20044;-79
2022/03/03 02:08:44;;;;;;;36.83;26.80;;;;;;;;;;4926259;29;20047;-80
2022/03/03 02:11:11;;;;;;;36.63;28.85;;;;;;;;;;4930930;29;20515;-80
2022/03/03 02:13:37;;;;;;;37.03;28.38;;;;;;;;;;4926522;29;20044;-80
2022/03/03 02:16:03;;;;;;;38.28;28.65;;;;;;;;;;4933204;29;20054;-79
2022/03/03 02:18:29;;;;;;;35.15;28.27;;;;;;;;;;4931667;29;20500;-80
2022/03/03 02:20:55;;;;;;;34.75;26.45;;;;;;;;;;4933081;29;20127;-80
2022/03/03 02:23:22;;;;;;;36.97;28.55;;;;;;;;;;4932197;29;20607;-80
2022/03/03 02:25:48;;;;;;;35.78;27.63;;;;;;;;;;4932680;29;20130;-80
2022/03/03 02:28:14;;;;;;;35.55;27.35;;;;;;;;;;4933000;29;20044;-79
2022/03/03 02:30:40;;;;;;;36.75;26.92;;;;;;;;;;4930588;29;20500;-80
2022/03/03 02:33:06;;;;;;;38.55;27.90;;;;;;;;;;4931821;29;20043;-80
2022/03/03 02:35:32;;;;;;;35.92;27.45;;;;;;;;;;4930716;29;20110;-79
2022/03/03 02:37:58;;;;;;;39.95;29.83;;;;;;;;;;4931886;29;20051;-80
2022/03/03 02:40:24;;;;;;;38.30;27.00;;;;;;;;;;4928272;29;20047;-80
2022/03/03 02:42:51;;;;;;;35.28;26.00;;;;;;;;;;4928552;29;20134;-79
2022/03/03 02:45:18;;;;;;;35.85;26.95;;;;;;;;;;4930077;29;20409;-80
2022/03/03 02:47:45;;;;;;;36.55;28.70;;;;;;;;;;4933757;29;20051;-79
2022/03/03 02:50:11;;;;;;;37.72;27.92;;;;;;;;;;4925766;29;20119;-79
2022/03/03 02:52:37;;;;;;;35.78;27.67;;;;;;;;;;4929003;29;20047;-80
2022/03/03 02:55:04;;;;;;;37.53;27.77;;;;;;;;;;4931261;29;20407;-79
2022/03/03 03:00:15;;;;;;;36.03;28.35;;;;;;;;;;4929875;29;20047;-79
2022/03/03 03:02:41;;;;;;;37.78;29.10;;;;;;;;;;4928323;29;20048;-80
2022/03/03 03:05:07;;;;;;;35.55;28.55;;;;;;;;;;4931071;29;20373;-80
2022/03/03 03:07:37;;;;;;;38.28;28.30;;;;;;;;;;4929354;29;20381;-79
2022/03/03 03:10:03;;;;;;;38.72;28.75;;;;;;;;;;4931839;29;20464;-80
2022/03/03 03:12:29;;;;;;;36.42;27.45;;;;;;;;;;4925995;29;20184;-80
2022/03/03 03:14:55;;;;;;;36.03;27.35;;;;;;;;;;4930403;29;20057;-80
2022/03/03 03:17:22;;;;;;;35.60;26.55;;;;;;;;;;4925666;29;20506;-80
2022/03/03 03:19:48;;;;;;;37.40;28.65;;;;;;;;;;4932411;29;20048;-80
2022/03/03 03:22:14;;;;;;;35.72;28.98;;;;;;;;;;4930751;29;20066;-79
2022/03/03 03:24:40;;;;;;;39.63;29.40;;;;;;;;;;4932096;29;20048;-80
2022/03/03 03:27:06;;;;;;;38.28;29.00;;;;;;;;;;4934025;29;20043;-80
2022/03/03 03:29:33;;;;;;;36.40;28.40;;;;;;;;;;4931628;29;20047;-80
2022/03/03 03:31:59;;;;;;;38.85;29.33;;;;;;;;;;4927710;29;20051;-80
2022/03/03 03:34:26;;;;;;;36.42;28.02;;;;;;;;;;4932799;29;20048;-80
2022/03/03 03:36:52;;;;;;;36.40;28.15;;;;;;;;;;4936431;29;20044;-80
2022/03/03 03:39:18;;;;;;;35.83;26.77;;;;;;;;;;4934644;29;20058;-79
2022/03/03 03:41:47;;;;;;;37.58;27.55;;;;;;;;;;4931300;29;20047;-79
2022/03/03 03:44:13;;;;;;;38.97;28.48;;;;;;;;;;4936616;29;20460;-79
2022/03/03 03:46:39;;;;;;;36.88;27.92;;;;;;;;;;4933879;29;20047;-79
2022/03/03 03:49:05;;;;;;;36.95;28.40;;;;;;;;;;4936166;29;20451;-80
2022/03/03 03:51:32;;;;;;;35.42;27.30;;;;;;;;;;4932312;29;20043;-79
2022/03/03 03:53:58;;;;;;;37.50;28.23;;;;;;;;;;4934338;29;20126;-79
2022/03/03 03:56:24;;;;;;;33.30;26.88;;;;;;;;;;4935156;29;20554;-80
2022/03/03 03:58:53;;;;;;;36.80;27.77;;;;;;;;;;4935487;29;20046;-80
2022/03/03 04:01:19;;;;;;;34.33;26.70;;;;;;;;;;4934223;29;20043;-80
2022/03/03 04:03:45;;;;;;;33.83;26.35;;;;;;;;;;4933174;29;20058;-80
2022/03/03 04:06:11;;;;;;;34.85;26.90;;;;;;;;;;4935335;29;20518;-79
2022/03/03 04:08:37;;;;;;;36.65;28.13;;;;;;;;;;4935002;29;20047;-80
2022/03/03 04:11:03;;;;;;;34.80;26.77;;;;;;;;;;4933550;29;20052;-80
2022/03/03 04:13:29;;;;;;;37.25;28.00;;;;;;;;;;4934020;29;20047;-80
2022/03/03 04:15:55;;;;;;;35.05;26.92;;;;;;;;;;4929155;29;20044;-80
2022/03/03 04:18:24;;;;;;;36.45;27.23;;;;;;;;;;4935433;29;20055;-80
2022/03/03 04:20:50;;;;;;;35.50;27.00;;;;;;;;;;4934422;29;20476;-80
2022/03/03 04:23:17;;;;;;;33.05;24.98;;;;;;;;;;4932678;29;20503;-80
2022/03/03 04:25:43;;;;;;;34.88;28.13;;;;;;;;;;4932833;29;20118;-79
2022/03/03 04:28:09;;;;;;;36.50;27.50;;;;;;;;;;4932521;29;20060;-79
2022/03/03 04:30:35;;;;;;;33.78;26.58;;;;;;;;;;4934949;29;20066;-80
2022/03/03 04:33:01;;;;;;;34.10;25.30;;;;;;;;;;4934698;29;20039;-80
2022/03/03 04:35:28;;;;;;;34.58;26.35;;;;;;;;;;4934478;29;20735;-80
2022/03/03 04:37:54;;;;;;;32.05;25.95;;;;;;;;;;4933601;29;20364;-81
2022/03/03 04:40:21;;;;;;;33.38;25.95;;;;;;;;;;4934663;29;20060;-79
2022/03/03 04:42:49;;;;;;;34.70;26.92;;;;;;;;;;4933315;29;20043;-80
2022/03/03 04:45:15;;;;;;;34.33;25.00;;;;;;;;;;4931981;29;20060;-80
2022/03/03 04:47:41;;;;;;;32.78;24.55;;;;;;;;;;4936032;29;20505;-80
2022/03/03 04:50:09;;;;;;;35.03;26.17;;;;;;;;;;4932607;29;20051;-80
2022/03/03 04:52:35;;;;;;;35.33;27.10;;;;;;;;;;4929659;29;20086;-80
2022/03/03 04:55:01;;;;;;;33.60;26.65;;;;;;;;;;4932148;29;20092;-80
2022/03/03 04:57:27;;;;;;;32.92;25.90;;;;;;;;;;4932097;29;20531;-80
2022/03/03 04:59:53;;;;;;;32.97;25.35;;;;;;;;;;4933254;29;20119;-80
2022/03/03 05:02:19;;;;;;;34.55;25.02;;;;;;;;;;4931913;29;20047;-80
2022/03/03 05:04:45;;;;;;;34.38;26.83;;;;;;;;;;4932914;29;20118;-80
2022/03/03 05:07:11;;;;;;;34.05;26.35;;;;;;;;;;4934768;29;20596;-79
2022/03/03 05:09:37;;;;;;;33.15;26.25;;;;;;;;;;4933948;29;20050;-80
2022/03/03 05:12:07;;;;;;;33.45;26.40;;;;;;;;;;4931788;29;20134;-80
2022/03/03 05:14:33;;;;;;;33.92;25.40;;;;;;;;;;4934422;29;20393;-80
2022/03/03 05:16:59;;;;;;;31.50;24.98;;;;;;;;;;4933484;29;20051;-80
2022/03/03 05:19:25;;;;;;;32.15;24.25;;;;;;;;;;4932461;29;20499;-81
2022/03/03 05:21:51;;;;;;;30.77;24.30;;;;;;;;;;4932691;29;20071;-80
2022/03/03 05:24:17;;;;;;;32.70;25.83;;;;;;;;;;4932340;29;20134;-80
2022/03/03 05:26:44;;;;;;;31.17;25.30;;;;;;;;;;4932399;29;20054;-80
2022/03/03 05:29:10;;;;;;;32.20;25.08;;;;;;;;;;4932631;29;20076;-79
2022/03/03 05:31:36;;;;;;;30.58;23.65;;;;;;;;;;4931730;29;20082;-80
2022/03/03 05:34:03;;;;;;;30.58;24.10;;;;;;;;;;4930565;29;20040;-80
2022/03/03 05:36:29;;;;;;;31.48;25.27;;;;;;;;;;4932031;29;20060;-80
2022/03/03 05:38:56;;;;;;;30.88;24.38;;;;;;;;;;4931761;29;20098;-82
2022/03/03 05:41:23;;;;;;;31.30;25.23;;;;;;;;;;4931366;29;20062;-82
2022/03/03 05:43:50;;;;;;;31.83;25.58;;;;;;;;;;4934031;29;20078;-79
2022/03/03 05:46:19;;;;;;;31.27;24.30;;;;;;;;;;4929376;29;20118;-80
2022/03/03 05:48:45;;;;;;;30.55;24.33;;;;;;;;;;4932383;29;20107;-81
2022/03/03 05:51:11;;;;;;;33.15;24.33;;;;;;;;;;4934376;29;20051;-80
2022/03/03 05:53:38;;;;;;;31.73;25.35;;;;;;;;;;4930373;29;20476;-80
2022/03/03 05:56:07;;;;;;;32.05;24.75;;;;;;;;;;4931444;29;20099;-80
2022/03/03 05:58:45;;;;;;;29.70;24.08;;;;;;;;;;4933359;29;20049;-80
2022/03/03 06:01:12;;;;;;;31.02;24.08;;;;;;;;;;4928612;29;20047;-79
2022/03/03 06:03:39;;;;;;;30.75;24.10;;;;;;;;;;4933191;29;20051;-79
2022/03/03 06:06:09;;;;;;;29.48;24.15;;;;;;;;;;4932991;29;20102;-80
2022/03/03 06:08:42;;;;;;;32.20;23.92;;;;;;;;;;4933520;29;20047;-80
2022/03/03 06:11:13;;;;;;;29.95;23.45;;;;;;;;;;4927017;29;20048;-80
2022/03/03 06:13:44;;;;;;;30.38;22.42;;;;;;;;;;4927988;29;20058;-80
2022/03/03 06:16:11;;;;;;;27.50;22.25;;;;;;;;;;4931732;29;20051;-79
2022/03/03 06:18:39;;;;;;;29.90;23.88;;;;;;;;;;4929379;29;20600;-81
2022/03/03 06:21:05;;;;;;;29.33;23.63;;;;;;;;;;4929562;29;20052;-80
2022/03/03 06:23:31;;;;;;;33.05;24.73;;;;;;;;;;4934303;29;20039;-80
2022/03/03 06:26:03;;;;;;;30.02;23.58;;;;;;;;;;4930182;29;20059;-81
2022/03/03 06:28:30;;;;;;;32.47;24.55;;;;;;;;;;4932817;29;20048;-80
2022/03/03 06:30:56;;;;;;;31.63;23.80;;;;;;;;;;4935594;29;20032;-80
2022/03/03 06:33:22;;;;;;;29.55;24.33;;;;;;;;;;4929409;29;20082;-81
2022/03/03 06:35:48;;;;;;;30.15;24.52;;;;;;;;;;4931302;29;20115;-80
2022/03/03 06:38:14;;;;;;;28.63;23.40;;;;;;;;;;4931604;29;20044;-80
2022/03/03 06:40:40;;;;;;;30.20;23.48;;;;;;;;;;4931363;29;20062;-79
2022/03/03 06:43:07;;;;;;;30.67;23.98;;;;;;;;;;4929265;29;20043;-80
2022/03/03 06:45:33;;;;;;;26.80;22.75;;;;;;;;;;4933100;29;20086;-79
2022/03/03 06:48:00;;;;;;;29.15;23.30;;;;;;;;;;4934359;29;20055;-80
2022/03/03 06:50:26;;;;;;;29.45;23.40;;;;;;;;;;4930012;29;20050;-82
2022/03/03 06:52:52;;;;;;;29.83;24.13;;;;;;;;;;4928209;29;20043;-80
2022/03/03 06:55:25;;;;;;;30.67;23.67;;;;;;;;;;4926813;29;20369;-80
2022/03/03 06:57:54;;;;;;;30.33;23.67;;;;;;;;;;4929273;29;20118;-81
2022/03/03 07:00:20;;;;;;;27.73;22.48;;;;;;;;;;4931657;29;20059;-80
2022/03/03 07:02:47;;;;;;;28.55;24.73;;;;;;;;;;4929717;29;20599;-80
2022/03/03 07:05:15;;;;;;;28.58;22.77;;;;;;;;;;4929019;29;20075;-80
2022/03/03 07:07:42;;;;;;;29.88;24.08;;;;;;;;;;4931899;29;20412;-80
2022/03/03 07:10:08;;;;;;;29.10;22.50;;;;;;;;;;4932649;29;20393;-80
2022/03/03 07:12:35;;;;;;;28.80;23.13;;;;;;;;;;4931011;29;20160;-80
2022/03/03 07:15:01;;;;;;;27.40;21.95;;;;;;;;;;4932908;29;20059;-81
2022/03/03 07:17:27;;;;;;;28.13;21.65;;;;;;;;;;4932314;29;20047;-81
2022/03/03 07:20:13;;;;;;;27.27;23.08;;;;;;;;;;4927377;29;20051;-81
2022/03/03 07:23:05;;;;;;;27.05;21.55;;;;;;;;;;4926300;29;20143;-81
2022/03/03 07:25:35;;;;;;;27.83;23.35;;;;;;;;;;4915230;29;20067;-81
2022/03/03 07:28:02;;;;;;;29.35;22.95;;;;;;;;;;4931664;29;20146;-80
2022/03/03 07:30:29;;;;;;;27.67;22.58;;;;;;;;;;4932426;29;20048;-80
2022/03/03 07:33:18;;;;;;;28.00;21.45;;;;;;;;;;4934960;29;20094;-80
2022/03/03 07:35:46;;;;;;;28.58;22.40;;;;;;;;;;4929832;29;20126;-81
2022/03/03 07:38:19;;;;;;;29.05;23.77;;;;;;;;;;4936190;29;20083;-80
2022/03/03 07:40:45;;;;;;;27.45;23.25;;;;;;;;;;4930331;29;20047;-80
2022/03/03 07:43:12;;;;;;;26.98;22.05;;;;;;;;;;4934481;29;20052;-80
2022/03/03 07:45:38;;;;;;;28.65;23.10;;;;;;;;;;4937869;29;20051;-80
2022/03/03 07:48:05;;;;;;;25.58;20.50;;;;;;;;;;4935728;29;20177;-80
2022/03/03 07:50:31;;;;;;;26.70;22.25;;;;;;;;;;4936152;28;20744;-80
2022/03/03 07:52:57;;;;;;;26.25;21.33;;;;;;;;;;4939822;29;20044;-80
2022/03/03 07:55:24;;;;;;;25.85;20.85;;;;;;;;;;4934144;29;20044;-81
2022/03/03 07:58:02;;;;;;;26.88;22.23;;;;;;;;;;4935550;29;20058;-79
2022/03/03 08:00:32;;;;;;;27.52;22.33;;;;;;;;;;4933861;29;20051;-82
2022/03/03 08:02:59;;;;;;;27.73;21.52;;;;;;;;;;4932107;29;20496;-80
2022/03/03 08:05:29;;;;;;;28.40;21.23;;;;;;;;;;4932106;29;20047;-80
2022/03/03 08:07:56;;;;;;;26.42;21.63;;;;;;;;;;4931613;29;20135;-80
2022/03/03 08:10:24;;;;;;;23.50;20.38;;;;;;;;;;4929096;29;20059;-81
2022/03/03 08:12:54;;;;;;;24.98;20.55;;;;;;;;;;4933032;29;20047;-81
2022/03/03 08:15:20;;;;;;;24.77;18.92;;;;;;;;;;4932474;29;20040;-80
2022/03/03 08:17:51;;;;;;;22.70;19.70;;;;;;;;;;4932620;29;20056;-80
2022/03/03 08:20:17;;;;;;;24.77;20.38;;;;;;;;;;4933660;29;20062;-81
2022/03/03 08:22:44;;;;;;;24.40;19.65;;;;;;;;;;4928435;29;20043;-80
2022/03/03 08:25:10;;;;;;;23.40;19.27;;;;;;;;;;4935756;29;20058;-80
2022/03/03 08:27:37;;;;;;;24.80;20.92;;;;;;;;;;4935225;29;20192;-80
2022/03/03 08:30:04;;;;;;;24.45;20.23;;;;;;;;;;4936403;29;20062;-80
2022/03/03 08:32:34;;;;;;;21.75;19.42;;;;;;;;;;4935617;29;20400;-80
2022/03/03 08:35:11;;;;;;;23.33;18.98;;;;;;;;;;4933373;29;20087;-80
2022/03/03 08:37:39;;;;;;;22.83;19.33;;;;;;;;;;4934881;29;20130;-82
2022/03/03 08:40:06;;;;;;;25.23;20.35;;;;;;;;;;4934703;29;20060;-80
2022/03/03 08:42:37;;;;;;;22.00;19.05;;;;;;;;;;4935834;29;20048;-80
2022/03/03 08:45:05;;;;;;;22.55;19.83;;;;;;;;;;4935811;29;20130;-80
2022/03/03 08:47:31;;;;;;;22.95;19.02;;;;;;;;;;4934165;29;20400;-80
2022/03/03 08:50:04;;;;;;;22.02;18.63;;;;;;;;;;4934176;29;20126;-80
2022/03/03 08:52:30;;;;;;;23.38;18.50;;;;;;;;;;4933646;29;20083;-80
2022/03/03 08:54:56;;;;;;;23.25;19.13;;;;;;;;;;4935273;29;20047;-80
2022/03/03 08:57:23;;;;;;;22.10;19.63;;;;;;;;;;4933200;29;20062;-80
2022/03/03 08:59:49;;;;;;;20.92;18.67;;;;;;;;;;4936254;29;20392;-80
2022/03/03 09:02:16;;;;;;;22.25;18.55;;;;;;;;;;4933091;29;20047;-80
2022/03/03 09:04:46;;;;;;;20.98;18.70;;;;;;;;;;4934307;29;20609;-80
2022/03/03 09:07:13;;;;;;;22.92;17.92;;;;;;;;;;4935826;29;20040;-80
2022/03/03 09:09:42;;;;;;;20.83;17.80;;;;;;;;;;4928999;29;20040;-80
2022/03/03 09:12:08;;;;;;;21.10;18.23;;;;;;;;;;4933555;29;20131;-80
2022/03/03 09:14:34;;;;;;;21.30;17.67;;;;;;;;;;4932751;29;20067;-80
2022/03/03 09:17:01;;;;;;;19.60;17.10;;;;;;;;;;4935717;29;20054;-81
2022/03/03 09:19:27;;;;;;;20.25;17.83;;;;;;;;;;4936008;28;20488;-81
2022/03/03 09:21:53;;;;;;;21.55;17.88;;;;;;;;;;4933779;29;20471;-81
2022/03/03 09:24:19;;;;;;;20.00;17.70;;;;;;;;;;4934537;29;20055;-81
2022/03/03 09:26:45;;;;;;;18.38;15.95;;;;;;;;;;4933506;29;20050;-80
2022/03/03 09:29:11;;;;;;;19.67;16.10;;;;;;;;;;4934757;29;20047;-80
2022/03/03 09:31:37;;;;;;;17.73;15.80;;;;;;;;;;4930859;29;20099;-80
2022/03/03 09:34:03;;;;;;;17.98;15.48;;;;;;;;;;4934189;29;20048;-80
2022/03/03 09:36:29;;;;;;;18.95;15.45;;;;;;;;;;4932837;29;20048;-80
2022/03/03 09:38:55;;;;;;;20.25;16.35;;;;;;;;;;4934082;29;20654;-80
2022/03/03 09:41:21;;;;;;;17.45;15.65;;;;;;;;;;4933664;29;20059;-81
2022/03/03 09:43:47;;;;;;;17.77;15.55;;;;;;;;;;4934260;29;20044;-80
2022/03/03 09:46:14;;;;;;;18.23;14.73;;;;;;;;;;4932601;29;20082;-80
2022/03/03 09:48:41;;;;;;;16.63;14.80;;;;;;;;;;4932892;29;20078;-80
2022/03/03 09:51:06;;;;;;;16.98;14.57;;;;;;;;;;4933839;29;20416;-80
2022/03/03 09:53:33;;;;;;;17.10;13.93;;;;;;;;;;4934194;29;20048;-80
2022/03/03 09:55:59;;;;;;;17.10;14.55;;;;;;;;;;4934593;29;20059;-80
2022/03/03 09:58:25;;;;;;;15.98;14.27;;;;;;;;;;4931991;29;20051;-80
2022/03/03 10:00:51;;;;;;;16.48;14.75;;;;;;;;;;4932323;29;20043;-80
2022/03/03 10:03:18;;;;;;;15.73;14.13;;;;;;;;;;4933834;29;20055;-79
2022/03/03 10:05:49;;;;;;;16.17;14.35;;;;;;;;;;4934573;29;20044;-80
2022/03/03 10:08:15;;;;;;;17.50;14.32;;;;;;;;;;4934152;29;20054;-79
2022/03/03 10:10:45;;;;;;;13.98;12.23;;;;;;;;;;4934901;29;20043;-80
2022/03/03 10:13:14;;;;;;;14.93;13.32;;;;;;;;;;4933333;29;20088;-79
2022/03/03 10:15:40;;;;;;;15.98;13.38;;;;;;;;;;4934568;29;20040;-79
2022/03/03 10:18:11;;;;;;;14.10;12.63;;;;;;;;;;4934601;29;20130;-80
2022/03/03 10:20:51;;;;;;;16.10;13.00;;;;;;;;;;4930726;29;20134;-80
2022/03/03 10:23:18;;;;;;;15.63;13.23;;;;;;;;;;4934227;29;20566;-79
2022/03/03 10:25:45;;;;;;;13.98;12.52;;;;;;;;;;4926607;29;20036;-79
2022/03/03 10:28:14;;;;;;;14.18;12.20;;;;;;;;;;4932133;29;20048;-79
2022/03/03 10:31:10;;;;;;;14.70;13.20;;;;;;;;;;4937009;29;20043;-79
2022/03/03 10:33:45;;;;;;;13.88;12.48;;;;;;;;;;4922991;29;20197;-80
2022/03/03 10:36:13;;;;;;;13.15;11.73;;;;;;;;;;4932499;29;20052;-79
2022/03/03 10:38:48;;;;;;;13.73;12.27;;;;;;;;;;4931004;29;20055;-79
2022/03/03 10:41:33;;;;;;;14.73;12.95;;;;;;;;;;4933860;29;20048;-79
2022/03/03 10:44:03;;;;;;;13.27;11.50;;;;;;;;;;4928678;29;20051;-79
2022/03/03 10:46:31;;;;;;;13.68;12.15;;;;;;;;;;4934064;29;20088;-79
2022/03/03 10:48:57;;;;;;;12.95;11.50;;;;;;;;;;4931954;29;20126;-79
2022/03/03 10:51:26;;;;;;;13.55;12.15;;;;;;;;;;4932538;29;20477;-80
2022/03/03 10:53:56;;;;;;;13.02;11.43;;;;;;;;;;4933790;29;20048;-79
2022/03/03 10:56:22;;;;;;;14.07;12.45;;;;;;;;;;4932547;29;20046;-79
2022/03/03 10:58:49;;;;;;;13.13;11.73;;;;;;;;;;4932552;29;20071;-79
2022/03/03 11:01:16;;;;;;;12.82;11.52;;;;;;;;;;4932600;29;20135;-79
2022/03/03 11:03:49;;;;;;;12.55;11.23;;;;;;;;;;4932507;29;20488;-79
2022/03/03 11:06:19;;;;;;;13.73;12.00;;;;;;;;;;4933313;29;20043;-79
2022/03/03 11:08:45;;;;;;;12.65;11.18;;;;;;;;;;4933542;29;20043;-79
2022/03/03 11:11:11;;;;;;;13.07;11.77;;;;;;;;;;4931624;29;20039;-79
2022/03/03 11:13:39;;;;;;;12.55;11.20;;;;;;;;;;4933520;29;21583;-80
2022/03/03 11:16:05;;;;;;;13.13;11.70;;;;;;;;;;4933091;29;20084;-79
2022/03/03 11:18:37;;;;;;;13.52;11.90;;;;;;;;;;4931890;29;20043;-80
2022/03/03 11:21:04;;;;;;;13.20;11.80;;;;;;;;;;4932666;29;20086;-80
2022/03/03 11:23:46;;;;;;;13.88;12.48;;;;;;;;;;4930815;29;20056;-80
2022/03/03 11:26:33;;;;;;;13.00;11.65;;;;;;;;;;4933767;29;20139;-80
2022/03/03 11:29:12;;;;;;;12.23;10.93;;;;;;;;;;4932573;29;20055;-80
2022/03/03 11:31:38;;;;;;;13.07;11.77;;;;;;;;;;4928723;29;20051;-79
2022/03/03 11:34:23;;;;;;;13.23;11.82;;;;;;;;;;4933603;29;20047;-80
2022/03/03 11:36:50;;;;;;;13.23;11.80;;;;;;;;;;4933336;29;20056;-80
2022/03/03 11:39:34;;;;;;;13.68;11.80;;;;;;;;;;4931316;29;20059;-80
2022/03/03 11:42:16;;;;;;;13.65;11.75;;;;;;;;;;4928864;29;20441;-80
2022/03/03 11:44:42;;;;;;;11.90;10.75;;;;;;;;;;4931676;29;20477;-80
2022/03/03 11:47:27;;;;;;;13.10;11.27;;;;;;;;;;4932365;29;20047;-71
2022/03/03 11:50:05;;;;;;;13.43;11.40;;;;;;;;;;4929362;29;20055;-80
2022/03/03 11:52:31;;;;;;;12.02;10.82;;;;;;;;;;4927036;29;20062;-79
2022/03/03 11:54:59;;;;;;;11.52;10.30;;;;;;;;;;4934045;29;20135;-80
2022/03/03 11:57:27;;;;;;;12.00;10.80;;;;;;;;;;4935739;29;20114;-80
2022/03/03 11:59:54;;;;;;;11.70;10.20;;;;;;;;;;4934304;29;20078;-80
2022/03/03 12:02:27;;;;;;;11.77;10.57;;;;;;;;;;4935809;29;20099;-80
2022/03/03 12:04:53;;;;;;;;;;;;;;;;;;4936901;29;20058;-80
2022/03/03 12:07:31;;;;;;;12.20;10.90;;;;;;;;;;4931629;29;19956;-80
2022/03/03 12:09:57;;;;;;;12.32;10.43;;;;;;;;;;4934642;29;20074;-79
2022/03/03 12:12:34;;;;;;;12.05;10.80;;;;;;;;;;4932513;29;20036;-80
2022/03/03 12:15:03;;;;;;;11.90;10.70;;;;;;;;;;4934375;29;20058;-79
2022/03/03 12:17:44;;;;;;;11.25;10.15;;;;;;;;;;4936672;29;20123;-80
2022/03/03 12:20:30;;;;;;;11.43;10.25;;;;;;;;;;4935953;29;20077;-80
2022/03/03 12:23:08;;;;;;;12.02;10.82;;;;;;;;;;4933957;29;20047;-78
2022/03/03 12:25:50;;;;;;;11.30;10.18;;;;;;;;;;4934822;29;20168;-80
2022/03/03 12:28:22;;;;;;;13.85;10.75;;;;;;;;;;4941756;29;20399;-79
2022/03/03 12:30:50;;;;;;;11.13;9.98;;;;;;;;;;4934086;29;20433;-80
2022/03/03 12:33:23;;;;;;;11.48;10.38;;;;;;;;;;4930497;29;20095;-80
2022/03/03 12:35:50;;;;;;;11.05;9.95;;;;;;;;;;4930081;29;20047;-80
2022/03/03 12:38:16;;;;;;;11.48;10.38;;;;;;;;;;4929501;29;20043;-79
2022/03/03 12:40:43;;;;;;;11.10;10.00;;;;;;;;;;4935811;29;20047;-79
2022/03/03 12:43:19;;;;;;;11.30;10.10;;;;;;;;;;4933821;29;20083;-79
2022/03/03 12:45:46;;;;;;;11.20;10.10;;;;;;;;;;4938910;29;20092;-78
2022/03/03 12:48:14;;;;;;;10.50;9.40;;;;;;;;;;4932884;29;20052;-78
2022/03/03 12:50:40;;;;;;;10.63;9.52;;;;;;;;;;4934774;29;20056;-78
2022/03/03 12:53:13;;;;;;;11.75;9.63;;;;;;;;;;4932562;29;20048;-78
2022/03/03 12:55:47;;;;;;;10.27;9.27;;;;;;;;;;4933924;29;20052;-78
2022/03/03 12:58:15;;;;;;;9.77;8.77;;;;;;;;;;4932424;29;20047;-78
2022/03/03 13:00:45;;;;;;;10.52;9.43;;;;;;;;;;4935616;29;20515;-79
2022/03/03 13:03:18;;;;;;;10.00;8.93;;;;;;;;;;4932867;29;20047;-78
2022/03/03 13:05:46;;;;;;;9.85;8.85;;;;;;;;;;4933438;29;20407;-78
2022/03/03 13:08:41;;;;;;;8.77;7.88;;;;;;;;;;4933235;29;20169;-80
2022/03/03 13:11:09;;;;;;;8.82;7.93;;;;;;;;;;4918640;29;20055;-80
2022/03/03 13:13:54;;;;;;;8.45;7.57;;;;;;;;;;4932462;29;20532;-80
2022/03/03 13:16:25;;;;;;;9.25;7.65;;;;;;;;;;4933607;29;20181;-79
2022/03/03 13:18:51;;;;;;;8.43;7.53;;;;;;;;;;4935486;29;20054;-79
2022/03/03 13:21:19;;;;;;;7.97;7.18;;;;;;;;;;4927776;29;20048;-79
2022/03/03 13:23:46;;;;;;;7.88;7.07;;;;;;;;;;4933781;29;20098;-79
2022/03/03 13:26:15;;;;;;;8.45;7.65;;;;;;;;;;4934144;29;20043;-80
2022/03/03 13:28:42;;;;;;;8.27;7.32;;;;;;;;;;4934030;29;20134;-77
2022/03/03 13:31:09;;;;;;;8.63;7.82;;;;;;;;;;4929733;29;20177;-78
2022/03/03 13:33:45;;;;;;;8.35;7.55;;;;;;;;;;4933431;29;20058;-78
2022/03/03 13:36:12;;;;;;;8.93;7.32;;;;;;;;;;4934825;29;20047;-78
2022/03/03 13:38:39;;;;;;;7.93;7.13;;;;;;;;;;4933042;29;20055;-79
2022/03/03 13:41:20;;;;;;;8.02;7.22;;;;;;;;;;4932401;29;20070;-78
2022/03/03 13:43:46;;;;;;;7.15;6.45;;;;;;;;;;4935072;29;20135;-79
2022/03/03 13:46:26;;;;;;;7.38;6.68;;;;;;;;;;4933063;29;20048;-76
2022/03/03 13:48:52;;;;;;;6.60;6.00;;;;;;;;;;4927827;29;20048;-78
2022/03/03 13:51:18;;;;;;;7.10;6.43;;;;;;;;;;4934468;29;20047;-78
2022/03/03 13:53:55;;;;;;;6.72;6.13;;;;;;;;;;4932690;29;20051;-78
2022/03/03 13:56:26;;;;;;;7.40;6.60;;;;;;;;;;4951882;29;20530;-78
2022/03/03 13:59:04;;;;;;;6.20;5.60;;;;;;;;;;4926807;29;20086;-77
2022/03/03 14:01:30;;;;;;;6.22;5.72;;;;;;;;;;4934415;29;20099;-78
2022/03/03 14:03:56;;;;;;;6.50;5.90;;;;;;;;;;4934422;29;20377;-77
2022/03/03 14:06:22;;;;;;;6.72;6.05;;;;;;;;;;4933865;29;20050;-77
2022/03/03 14:08:49;;;;;;;6.65;6.05;;;;;;;;;;4916930;29;20044;-78
2022/03/03 14:11:28;;;;;;;6.45;5.95;;;;;;;;;;4933134;29;20074;-78
2022/03/03 14:13:55;;;;;;;6.55;5.85;;;;;;;;;;4932958;29;20056;-79
2022/03/03 14:16:22;;;;;;;6.70;6.10;;;;;;;;;;4932731;29;20051;-78
2022/03/03 14:18:49;;;;;;;6.97;6.38;;;;;;;;;;4933105;29;20507;-78
2022/03/03 14:21:15;;;;;;;6.93;6.22;;;;;;;;;;4931165;29;20051;-79
2022/03/03 14:23:41;;;;;;;6.78;6.15;;;;;;;;;;4930781;29;20574;-78
2022/03/03 14:26:10;;;;;;;6.75;6.15;;;;;;;;;;4933409;29;20130;-78
2022/03/03 14:28:36;;;;;;;7.22;6.63;;;;;;;;;;4934909;29;20130;-78
2022/03/03 14:31:02;;;;;;;7.85;6.90;;;;;;;;;;4943014;29;20050;-77